Aviation Digital Data Service (ADDS)

Output produced by METARs form (1920 UTC 19 August 2019)
found at http://www.aviationweather.gov/metar/data/
 
METAR text: LOWS 191850Z 16005KT 130V190 CAVOK 19/16 Q1020 NOSIG
Conditions at: LOWS (SALZBURG AIRPORT, AT) observed 1850 UTC 19 August 2019
Temperature: 19.0°C (66°F)
Dewpoint: 16.0°C (61°F) [RH = 83%]
Pressure (altimeter): 30.12 inches Hg (1020.0 mb)
Winds: from the SSE (160 degrees) at 6 MPH (5 knots; 2.6 m/s)
Visibility: 6 or more miles (10+ km)
Ceiling: ceiling and visibility are OK
Clouds: unknown
Weather: no significant weather observed at this time

METAR text: LOWS 191820Z 18002KT CAVOK 20/16 Q1019 NOSIG
Conditions at: LOWS (SALZBURG AIRPORT, AT) observed 1820 UTC 19 August 2019
Temperature: 20.0°C (68°F)
Dewpoint: 16.0°C (61°F) [RH = 78%]
Pressure (altimeter): 30.09 inches Hg (1019.0 mb)
Winds: from the S (180 degrees) at 2 MPH (2 knots; 1.0 m/s)
Visibility: 6 or more miles (10+ km)
Ceiling: ceiling and visibility are OK
Clouds: unknown
Weather: no significant weather observed at this time

METAR text: LOWS 191750Z 17003KT CAVOK 21/16 Q1019 NOSIG
Conditions at: LOWS (SALZBURG AIRPORT, AT) observed 1750 UTC 19 August 2019
Temperature: 21.0°C (70°F)
Dewpoint: 16.0°C (61°F) [RH = 73%]
Pressure (altimeter): 30.09 inches Hg (1019.0 mb)
Winds: from the S (170 degrees) at 3 MPH (3 knots; 1.5 m/s)
Visibility: 6 or more miles (10+ km)
Ceiling: ceiling and visibility are OK
Clouds: unknown
Weather: no significant weather observed at this time

METAR text: LOWS 191720Z 13006KT 100V160 9999 FEW060 22/16 Q1019 NOSIG
Conditions at: LOWS (SALZBURG AIRPORT, AT) observed 1720 UTC 19 August 2019
Temperature: 22.0°C (72°F)
Dewpoint: 16.0°C (61°F) [RH = 69%]
Pressure (altimeter): 30.09 inches Hg (1019.0 mb)
Winds: from the SE (130 degrees) at 7 MPH (6 knots; 3.1 m/s)
Visibility: 6 or more miles (10+ km)
Ceiling: at least 12,000 feet AGL
Clouds: few clouds at 6000 feet AGL
Weather: no significant weather observed at this time

METAR text: LOWS 191650Z 12006KT 9999 FEW060 SCT130 22/17 Q1019 NOSIG
Conditions at: LOWS (SALZBURG AIRPORT, AT) observed 1650 UTC 19 August 2019
Temperature: 22.0°C (72°F)
Dewpoint: 17.0°C (63°F) [RH = 73%]
Pressure (altimeter): 30.09 inches Hg (1019.0 mb)
Winds: from the ESE (120 degrees) at 7 MPH (6 knots; 3.1 m/s)
Visibility: 6 or more miles (10+ km)
Ceiling: at least 12,000 feet AGL
Clouds: few clouds at 6000 feet AGL
scattered clouds at 13000 feet AGL
Weather: no significant weather observed at this time

METAR text: LOWS 191620Z 13007KT 100V180 9999 FEW060 SCT130 22/16 Q1018 NOSIG
Conditions at: LOWS (SALZBURG AIRPORT, AT) observed 1620 UTC 19 August 2019
Temperature: 22.0°C (72°F)
Dewpoint: 16.0°C (61°F) [RH = 69%]
Pressure (altimeter): 30.06 inches Hg (1018.0 mb)
Winds: from the SE (130 degrees) at 8 MPH (7 knots; 3.6 m/s)
Visibility: 6 or more miles (10+ km)
Ceiling: at least 12,000 feet AGL
Clouds: few clouds at 6000 feet AGL
scattered clouds at 13000 feet AGL
Weather: no significant weather observed at this time

METAR text: LOWS 191550Z 14006KT 090V170 9999 FEW060 SCT130 22/16 Q1018 NOSIG
Conditions at: LOWS (SALZBURG AIRPORT, AT) observed 1550 UTC 19 August 2019
Temperature: 22.0°C (72°F)
Dewpoint: 16.0°C (61°F) [RH = 69%]
Pressure (altimeter): 30.06 inches Hg (1018.0 mb)
Winds: from the SE (140 degrees) at 7 MPH (6 knots; 3.1 m/s)
Visibility: 6 or more miles (10+ km)
Ceiling: at least 12,000 feet AGL
Clouds: few clouds at 6000 feet AGL
scattered clouds at 13000 feet AGL
Weather: no significant weather observed at this time

METAR text: LOWS 191520Z 14007KT 110V170 9999 FEW060 BKN130 21/17 Q1019 NOSIG
Conditions at: LOWS (SALZBURG AIRPORT, AT) observed 1520 UTC 19 August 2019
Temperature: 21.0°C (70°F)
Dewpoint: 17.0°C (63°F) [RH = 78%]
Pressure (altimeter): 30.09 inches Hg (1019.0 mb)
Winds: from the SE (140 degrees) at 8 MPH (7 knots; 3.6 m/s)
Visibility: 6 or more miles (10+ km)
Ceiling: 13000 feet AGL
Clouds: few clouds at 6000 feet AGL
broken clouds at 13000 feet AGL
Weather: no significant weather observed at this time

METAR text: LOWS 191450Z 14007KT 9999 FEW060 BKN130 21/17 Q1019 NOSIG
Conditions at: LOWS (SALZBURG AIRPORT, AT) observed 1450 UTC 19 August 2019
Temperature: 21.0°C (70°F)
Dewpoint: 17.0°C (63°F) [RH = 78%]
Pressure (altimeter): 30.09 inches Hg (1019.0 mb)
Winds: from the SE (140 degrees) at 8 MPH (7 knots; 3.6 m/s)
Visibility: 6 or more miles (10+ km)
Ceiling: 13000 feet AGL
Clouds: few clouds at 6000 feet AGL
broken clouds at 13000 feet AGL
Weather: no significant weather observed at this time

METAR text: LOWS 191420Z 13004KT 9999 FEW060 BKN130 21/17 Q1019 NOSIG
Conditions at: LOWS (SALZBURG AIRPORT, AT) observed 1420 UTC 19 August 2019
Temperature: 21.0°C (70°F)
Dewpoint: 17.0°C (63°F) [RH = 78%]
Pressure (altimeter): 30.09 inches Hg (1019.0 mb)
Winds: from the SE (130 degrees) at 5 MPH (4 knots; 2.1 m/s)
Visibility: 6 or more miles (10+ km)
Ceiling: 13000 feet AGL
Clouds: few clouds at 6000 feet AGL
broken clouds at 13000 feet AGL
Weather: no significant weather observed at this time

METAR text: LOWS 191350Z 14005KT 9999 FEW050 BKN120 22/17 Q1019 NOSIG
Conditions at: LOWS (SALZBURG AIRPORT, AT) observed 1350 UTC 19 August 2019
Temperature: 22.0°C (72°F)
Dewpoint: 17.0°C (63°F) [RH = 73%]
Pressure (altimeter): 30.09 inches Hg (1019.0 mb)
Winds: from the SE (140 degrees) at 6 MPH (5 knots; 2.6 m/s)
Visibility: 6 or more miles (10+ km)
Ceiling: 12000 feet AGL
Clouds: few clouds at 5000 feet AGL
broken clouds at 12000 feet AGL
Weather: no significant weather observed at this time

METAR text: LOWS 191320Z VRB02KT 9999 FEW050 BKN110 22/18 Q1019 NOSIG
Conditions at: LOWS (SALZBURG AIRPORT, AT) observed 1320 UTC 19 August 2019
Temperature: 22.0°C (72°F)
Dewpoint: 18.0°C (64°F) [RH = 78%]
Pressure (altimeter): 30.09 inches Hg (1019.0 mb)
Winds: variable direction winds at 2 MPH (2 knots; 1.0 m/s)
Visibility: 6 or more miles (10+ km)
Ceiling: 11000 feet AGL
Clouds: few clouds at 5000 feet AGL
broken clouds at 11000 feet AGL
Weather: no significant weather observed at this time

METAR text: LOWS 191250Z 26005KT 230V290 9999 -SHRA FEW050 BKN110 21/17 Q1020 NOSIG
Conditions at: LOWS (SALZBURG AIRPORT, AT) observed 1250 UTC 19 August 2019
Temperature: 21.0°C (70°F)
Dewpoint: 17.0°C (63°F) [RH = 78%]
Pressure (altimeter): 30.12 inches Hg (1020.0 mb)
Winds: from the W (260 degrees) at 6 MPH (5 knots; 2.6 m/s)
Visibility: 6 or more miles (10+ km)
Ceiling: 11000 feet AGL
Clouds: few clouds at 5000 feet AGL
broken clouds at 11000 feet AGL
Weather: -SHRA  (light rain showers)

METAR text: LOWS 191220Z 22004KT 180V240 9999 -SHRA FEW050 BKN110 21/16 Q1019 NOSIG
Conditions at: LOWS (SALZBURG AIRPORT, AT) observed 1220 UTC 19 August 2019
Temperature: 21.0°C (70°F)
Dewpoint: 16.0°C (61°F) [RH = 73%]
Pressure (altimeter): 30.09 inches Hg (1019.0 mb)
Winds: from the SW (220 degrees) at 5 MPH (4 knots; 2.1 m/s)
Visibility: 6 or more miles (10+ km)
Ceiling: 11000 feet AGL
Clouds: few clouds at 5000 feet AGL
broken clouds at 11000 feet AGL
Weather: -SHRA  (light rain showers)

METAR text: LOWS 191150Z 14003KT 9999 FEW050 SCT100 BKN130 22/15 Q1019 NOSIG
Conditions at: LOWS (SALZBURG AIRPORT, AT) observed 1150 UTC 19 August 2019
Temperature: 22.0°C (72°F)
Dewpoint: 15.0°C (59°F) [RH = 65%]
Pressure (altimeter): 30.09 inches Hg (1019.0 mb)
Winds: from the SE (140 degrees) at 3 MPH (3 knots; 1.5 m/s)
Visibility: 6 or more miles (10+ km)
Ceiling: 13000 feet AGL
Clouds: few clouds at 5000 feet AGL
scattered clouds at 10000 feet AGL
broken clouds at 13000 feet AGL
Weather: no significant weather observed at this time

METAR text: LOWS 191120Z 13004KT 9999 FEW050 SCT100 BKN130 22/15 Q1019 NOSIG
Conditions at: LOWS (SALZBURG AIRPORT, AT) observed 1120 UTC 19 August 2019
Temperature: 22.0°C (72°F)
Dewpoint: 15.0°C (59°F) [RH = 65%]
Pressure (altimeter): 30.09 inches Hg (1019.0 mb)
Winds: from the SE (130 degrees) at 5 MPH (4 knots; 2.1 m/s)
Visibility: 6 or more miles (10+ km)
Ceiling: 13000 feet AGL
Clouds: few clouds at 5000 feet AGL
scattered clouds at 10000 feet AGL
broken clouds at 13000 feet AGL
Weather: no significant weather observed at this time

METAR text: LOWS 191050Z 17004KT 9999 FEW050 BKN100 22/17 Q1019 NOSIG
Conditions at: LOWS (SALZBURG AIRPORT, AT) observed 1050 UTC 19 August 2019
Temperature: 22.0°C (72°F)
Dewpoint: 17.0°C (63°F) [RH = 73%]
Pressure (altimeter): 30.09 inches Hg (1019.0 mb)
Winds: from the S (170 degrees) at 5 MPH (4 knots; 2.1 m/s)
Visibility: 6 or more miles (10+ km)
Ceiling: 10000 feet AGL
Clouds: few clouds at 5000 feet AGL
broken clouds at 10000 feet AGL
Weather: no significant weather observed at this time

METAR text: LOWS 191020Z 23003KT 180V270 9999 FEW050 BKN090 22/16 Q1019 NOSIG
Conditions at: LOWS (SALZBURG AIRPORT, AT) observed 1020 UTC 19 August 2019
Temperature: 22.0°C (72°F)
Dewpoint: 16.0°C (61°F) [RH = 69%]
Pressure (altimeter): 30.09 inches Hg (1019.0 mb)
Winds: from the SW (230 degrees) at 3 MPH (3 knots; 1.5 m/s)
Visibility: 6 or more miles (10+ km)
Ceiling: 9000 feet AGL
Clouds: few clouds at 5000 feet AGL
broken clouds at 9000 feet AGL
Weather: no significant weather observed at this time

METAR text: LOWS 190950Z 29004KT 9999 FEW050 SCT090 BKN130 22/15 Q1020 NOSIG
Conditions at: LOWS (SALZBURG AIRPORT, AT) observed 0950 UTC 19 August 2019
Temperature: 22.0°C (72°F)
Dewpoint: 15.0°C (59°F) [RH = 65%]
Pressure (altimeter): 30.12 inches Hg (1020.0 mb)
Winds: from the WNW (290 degrees) at 5 MPH (4 knots; 2.1 m/s)
Visibility: 6 or more miles (10+ km)
Ceiling: 13000 feet AGL
Clouds: few clouds at 5000 feet AGL
scattered clouds at 9000 feet AGL
broken clouds at 13000 feet AGL
Weather: no significant weather observed at this time

METAR text: LOWS 190920Z VRB04KT 9999 FEW050 SCT085 BKN130 23/16 Q1019 TEMPO 32008KT
Conditions at: LOWS (SALZBURG AIRPORT, AT) observed 0920 UTC 19 August 2019
Temperature: 23.0°C (73°F)
Dewpoint: 16.0°C (61°F) [RH = 65%]
Pressure (altimeter): 30.09 inches Hg (1019.0 mb)
Winds: variable direction winds at 5 MPH (4 knots; 2.1 m/s)
Visibility: 6 or more miles (10+ km)
Ceiling: 13000 feet AGL
Clouds: few clouds at 5000 feet AGL
scattered clouds at 8500 feet AGL
broken clouds at 13000 feet AGL
Weather: no significant weather observed at this time

METAR text: LOWS 190850Z VRB02KT 9999 FEW060 SCT085 BKN130 22/17 Q1019 TEMPO 32008KT SHRA
Conditions at: LOWS (SALZBURG AIRPORT, AT) observed 0850 UTC 19 August 2019
Temperature: 22.0°C (72°F)
Dewpoint: 17.0°C (63°F) [RH = 73%]
Pressure (altimeter): 30.09 inches Hg (1019.0 mb)
Winds: variable direction winds at 2 MPH (2 knots; 1.0 m/s)
Visibility: 6 or more miles (10+ km)
Ceiling: 13000 feet AGL
Clouds: few clouds at 6000 feet AGL
scattered clouds at 8500 feet AGL
broken clouds at 13000 feet AGL
Weather: no significant weather observed at this time

METAR text: LOWS 190820Z 18003KT 9999 FEW060 SCT085 BKN100 22/16 Q1019 TEMPO 32008KT SHRA
Conditions at: LOWS (SALZBURG AIRPORT, AT) observed 0820 UTC 19 August 2019
Temperature: 22.0°C (72°F)
Dewpoint: 16.0°C (61°F) [RH = 69%]
Pressure (altimeter): 30.09 inches Hg (1019.0 mb)
Winds: from the S (180 degrees) at 3 MPH (3 knots; 1.5 m/s)
Visibility: 6 or more miles (10+ km)
Ceiling: 10000 feet AGL
Clouds: few clouds at 6000 feet AGL
scattered clouds at 8500 feet AGL
broken clouds at 10000 feet AGL
Weather: no significant weather observed at this time

METAR text: LOWS 190750Z 15006KT 9999 FEW060 SCT085 BKN100 21/16 Q1019 TEMPO 32008KT SHRA
Conditions at: LOWS (SALZBURG AIRPORT, AT) observed 0750 UTC 19 August 2019
Temperature: 21.0°C (70°F)
Dewpoint: 16.0°C (61°F) [RH = 73%]
Pressure (altimeter): 30.09 inches Hg (1019.0 mb)
Winds: from the SSE (150 degrees) at 7 MPH (6 knots; 3.1 m/s)
Visibility: 6 or more miles (10+ km)
Ceiling: 10000 feet AGL
Clouds: few clouds at 6000 feet AGL
scattered clouds at 8500 feet AGL
broken clouds at 10000 feet AGL
Weather: no significant weather observed at this time

METAR text: LOWS 190720Z 14006KT 9999 FEW055 SCT085 BKN100 20/16 Q1018 NOSIG
Conditions at: LOWS (SALZBURG AIRPORT, AT) observed 0720 UTC 19 August 2019
Temperature: 20.0°C (68°F)
Dewpoint: 16.0°C (61°F) [RH = 78%]
Pressure (altimeter): 30.06 inches Hg (1018.0 mb)
Winds: from the SE (140 degrees) at 7 MPH (6 knots; 3.1 m/s)
Visibility: 6 or more miles (10+ km)
Ceiling: 10000 feet AGL
Clouds: few clouds at 5500 feet AGL
scattered clouds at 8500 feet AGL
broken clouds at 10000 feet AGL
Weather: no significant weather observed at this time

METAR text: LOWS 190650Z 13007KT 9999 FEW055 SCT085 BKN100 19/16 Q1019 NOSIG
Conditions at: LOWS (SALZBURG AIRPORT, AT) observed 0650 UTC 19 August 2019
Temperature: 19.0°C (66°F)
Dewpoint: 16.0°C (61°F) [RH = 83%]
Pressure (altimeter): 30.09 inches Hg (1019.0 mb)
Winds: from the SE (130 degrees) at 8 MPH (7 knots; 3.6 m/s)
Visibility: 6 or more miles (10+ km)
Ceiling: 10000 feet AGL
Clouds: few clouds at 5500 feet AGL
scattered clouds at 8500 feet AGL
broken clouds at 10000 feet AGL
Weather: no significant weather observed at this time

METAR text: LOWS 190620Z 20004KT 9999 FEW055 BKN090 18/16 Q1019 NOSIG
Conditions at: LOWS (SALZBURG AIRPORT, AT) observed 0620 UTC 19 August 2019
Temperature: 18.0°C (64°F)
Dewpoint: 16.0°C (61°F) [RH = 88%]
Pressure (altimeter): 30.09 inches Hg (1019.0 mb)
Winds: from the SSW (200 degrees) at 5 MPH (4 knots; 2.1 m/s)
Visibility: 6 or more miles (10+ km)
Ceiling: 9000 feet AGL
Clouds: few clouds at 5500 feet AGL
broken clouds at 9000 feet AGL
Weather: no significant weather observed at this time

METAR text: LOWS 190550Z 18004KT 9999 FEW055 BKN085 18/16 Q1019 NOSIG
Conditions at: LOWS (SALZBURG AIRPORT, AT) observed 0550 UTC 19 August 2019
Temperature: 18.0°C (64°F)
Dewpoint: 16.0°C (61°F) [RH = 88%]
Pressure (altimeter): 30.09 inches Hg (1019.0 mb)
Winds: from the S (180 degrees) at 5 MPH (4 knots; 2.1 m/s)
Visibility: 6 or more miles (10+ km)
Ceiling: 8500 feet AGL
Clouds: few clouds at 5500 feet AGL
broken clouds at 8500 feet AGL
Weather: no significant weather observed at this time

METAR text: LOWS 190520Z 17006KT 9999 FEW050 BKN080 18/16 Q1019 NOSIG
Conditions at: LOWS (SALZBURG AIRPORT, AT) observed 0520 UTC 19 August 2019
Temperature: 18.0°C (64°F)
Dewpoint: 16.0°C (61°F) [RH = 88%]
Pressure (altimeter): 30.09 inches Hg (1019.0 mb)
Winds: from the S (170 degrees) at 7 MPH (6 knots; 3.1 m/s)
Visibility: 6 or more miles (10+ km)
Ceiling: 8000 feet AGL
Clouds: few clouds at 5000 feet AGL
broken clouds at 8000 feet AGL
Weather: no significant weather observed at this time

METAR text: LOWS 190450Z 16006KT 9999 FEW040 BKN080 17/16 Q1019 NOSIG
Conditions at: LOWS (SALZBURG AIRPORT, AT) observed 0450 UTC 19 August 2019
Temperature: 17.0°C (63°F)
Dewpoint: 16.0°C (61°F) [RH = 94%]
Pressure (altimeter): 30.09 inches Hg (1019.0 mb)
Winds: from the SSE (160 degrees) at 7 MPH (6 knots; 3.1 m/s)
Visibility: 6 or more miles (10+ km)
Ceiling: 8000 feet AGL
Clouds: few clouds at 4000 feet AGL
broken clouds at 8000 feet AGL
Weather: no significant weather observed at this time

METAR text: LOWS 190420Z 13005KT 9999 -RA FEW025 SCT050 BKN070 17/15 Q1019 TEMPO SHRA
Conditions at: LOWS (SALZBURG AIRPORT, AT) observed 0420 UTC 19 August 2019
Temperature: 17.0°C (63°F)
Dewpoint: 15.0°C (59°F) [RH = 88%]
Pressure (altimeter): 30.09 inches Hg (1019.0 mb)
Winds: from the SE (130 degrees) at 6 MPH (5 knots; 2.6 m/s)
Visibility: 6 or more miles (10+ km)
Ceiling: 7000 feet AGL
Clouds: few clouds at 2500 feet AGL
scattered clouds at 5000 feet AGL
broken clouds at 7000 feet AGL
Weather: -RA  (light rain)

METAR text: LOWS 190350Z VRB02KT 9999 -RA FEW025 SCT045 FEW050TCU BKN070 18/15 Q1019 TEMPO SHRA
Conditions at: LOWS (SALZBURG AIRPORT, AT) observed 0350 UTC 19 August 2019
Temperature: 18.0°C (64°F)
Dewpoint: 15.0°C (59°F) [RH = 83%]
Pressure (altimeter): 30.09 inches Hg (1019.0 mb)
Winds: variable direction winds at 2 MPH (2 knots; 1.0 m/s)
Visibility: 6 or more miles (10+ km)
Ceiling: 7000 feet AGL
Clouds: few clouds at 2500 feet AGL
scattered clouds at 4500 feet AGL
few clouds at 5000 feet AGL
broken clouds at 7000 feet AGL
Weather: -RA  (light rain)

METAR text: LOWS 190320Z AUTO 30008KT 9999 -RA //////CB FEW026 BKN050 18/15 Q1020
Conditions at: LOWS (SALZBURG AIRPORT, AT) observed 0320 UTC 19 August 2019
Temperature: 18.0°C (64°F)
Dewpoint: 15.0°C (59°F) [RH = 83%]
Pressure (altimeter): 30.12 inches Hg (1020.0 mb)
Winds: from the WNW (300 degrees) at 9 MPH (8 knots; 4.1 m/s)
Visibility: 6 or more miles (10+ km)
Ceiling: 5000 feet AGL
Clouds: few clouds at 2600 feet AGL
broken clouds at 5000 feet AGL
Weather: -RA  (light rain)

METAR text: LOWS 190250Z AUTO 29017KT 250V310 9999 -RA FEW028 SCT034 BKN048 21/15 Q1019
Conditions at: LOWS (SALZBURG AIRPORT, AT) observed 0250 UTC 19 August 2019
Temperature: 21.0°C (70°F)
Dewpoint: 15.0°C (59°F) [RH = 69%]
Pressure (altimeter): 30.09 inches Hg (1019.0 mb)
Winds: from the WNW (290 degrees) at 20 MPH (17 knots; 8.7 m/s)
Visibility: 6 or more miles (10+ km)
Ceiling: 4800 feet AGL
Clouds: few clouds at 2800 feet AGL
scattered clouds at 3400 feet AGL
broken clouds at 4800 feet AGL
Weather: -RA  (light rain)

METAR text: LOWS 190220Z AUTO 30016KT 270V340 9999 FEW042 SCT046 BKN050 22/15 Q1018
Conditions at: LOWS (SALZBURG AIRPORT, AT) observed 0220 UTC 19 August 2019
Temperature: 22.0°C (72°F)
Dewpoint: 15.0°C (59°F) [RH = 65%]
Pressure (altimeter): 30.06 inches Hg (1018.0 mb)
Winds: from the WNW (300 degrees) at 18 MPH (16 knots; 8.2 m/s)
Visibility: 6 or more miles (10+ km)
Ceiling: 5000 feet AGL
Clouds: few clouds at 4200 feet AGL
scattered clouds at 4600 feet AGL
broken clouds at 5000 feet AGL
Weather: no significant weather observed at this time

METAR text: LOWS 190150Z AUTO 34006KT 9999 FEW046 OVC070 22/15 Q1017
Conditions at: LOWS (SALZBURG AIRPORT, AT) observed 0150 UTC 19 August 2019
Temperature: 22.0°C (72°F)
Dewpoint: 15.0°C (59°F) [RH = 65%]
Pressure (altimeter): 30.03 inches Hg (1017.0 mb)
Winds: from the NNW (340 degrees) at 7 MPH (6 knots; 3.1 m/s)
Visibility: 6 or more miles (10+ km)
Ceiling: 7000 feet AGL
Clouds: few clouds at 4600 feet AGL
overcast cloud deck at 7000 feet AGL
Weather: no significant weather observed at this time

METAR text: LOWS 190120Z AUTO 34004KT 9999 BKN070 21/15 Q1016
Conditions at: LOWS (SALZBURG AIRPORT, AT) observed 0120 UTC 19 August 2019
Temperature: 21.0°C (70°F)
Dewpoint: 15.0°C (59°F) [RH = 69%]
Pressure (altimeter): 30.00 inches Hg (1016.0 mb)
Winds: from the NNW (340 degrees) at 5 MPH (4 knots; 2.1 m/s)
Visibility: 6 or more miles (10+ km)
Ceiling: 7000 feet AGL
Clouds: broken clouds at 7000 feet AGL
Weather: no significant weather observed at this time

METAR text: LOWS 190050Z AUTO 29004KT 260V320 9999 NSC 22/14 Q1015
Conditions at: LOWS (SALZBURG AIRPORT, AT) observed 0050 UTC 19 August 2019
Temperature: 22.0°C (72°F)
Dewpoint: 14.0°C (57°F) [RH = 60%]
Pressure (altimeter): 29.97 inches Hg (1015.0 mb)
Winds: from the WNW (290 degrees) at 5 MPH (4 knots; 2.1 m/s)
Visibility: 6 or more miles (10+ km)
Ceiling: at least 12,000 feet AGL
Clouds: sky clear below 12,000 feet AGL
Weather: no significant weather observed at this time

METAR text: LOWS 190020Z AUTO 27005KT 240V310 9999 NSC 22/14 Q1014
Conditions at: LOWS (SALZBURG AIRPORT, AT) observed 0020 UTC 19 August 2019
Temperature: 22.0°C (72°F)
Dewpoint: 14.0°C (57°F) [RH = 60%]
Pressure (altimeter): 29.94 inches Hg (1014.0 mb)
Winds: from the W (270 degrees) at 6 MPH (5 knots; 2.6 m/s)
Visibility: 6 or more miles (10+ km)
Ceiling: at least 12,000 feet AGL
Clouds: sky clear below 12,000 feet AGL
Weather: no significant weather observed at this time

METAR text: LOWS 182350Z AUTO 21004KT 190V250 9999 NSC 20/14 Q1013
Conditions at: LOWS (SALZBURG AIRPORT, AT) observed 2350 UTC 18 August 2019
Temperature: 20.0°C (68°F)
Dewpoint: 14.0°C (57°F) [RH = 68%]
Pressure (altimeter): 29.91 inches Hg (1013.0 mb)
Winds: from the SSW (210 degrees) at 5 MPH (4 knots; 2.1 m/s)
Visibility: 6 or more miles (10+ km)
Ceiling: at least 12,000 feet AGL
Clouds: sky clear below 12,000 feet AGL
Weather: no significant weather observed at this time

METAR text: LOWS 182320Z AUTO VRB02KT 9999 NSC 21/13 Q1013
Conditions at: LOWS (SALZBURG AIRPORT, AT) observed 2320 UTC 18 August 2019
Temperature: 21.0°C (70°F)
Dewpoint: 13.0°C (55°F) [RH = 60%]
Pressure (altimeter): 29.91 inches Hg (1013.0 mb)
Winds: variable direction winds at 2 MPH (2 knots; 1.0 m/s)
Visibility: 6 or more miles (10+ km)
Ceiling: at least 12,000 feet AGL
Clouds: sky clear below 12,000 feet AGL
Weather: no significant weather observed at this time

METAR text: LOWS 182250Z AUTO 18005KT 9999 NSC 21/14 Q1012
Conditions at: LOWS (SALZBURG AIRPORT, AT) observed 2250 UTC 18 August 2019
Temperature: 21.0°C (70°F)
Dewpoint: 14.0°C (57°F) [RH = 64%]
Pressure (altimeter): 29.88 inches Hg (1012.0 mb)
Winds: from the S (180 degrees) at 6 MPH (5 knots; 2.6 m/s)
Visibility: 6 or more miles (10+ km)
Ceiling: at least 12,000 feet AGL
Clouds: sky clear below 12,000 feet AGL
Weather: no significant weather observed at this time

METAR text: LOWS 182220Z AUTO 15008KT 9999 NSC 22/14 Q1011
Conditions at: LOWS (SALZBURG AIRPORT, AT) observed 2220 UTC 18 August 2019
Temperature: 22.0°C (72°F)
Dewpoint: 14.0°C (57°F) [RH = 60%]
Pressure (altimeter): 29.85 inches Hg (1011.0 mb)
Winds: from the SSE (150 degrees) at 9 MPH (8 knots; 4.1 m/s)
Visibility: 6 or more miles (10+ km)
Ceiling: at least 12,000 feet AGL
Clouds: sky clear below 12,000 feet AGL
Weather: no significant weather observed at this time

METAR text: LOWS 182150Z AUTO 16007KT 130V190 9999 NSC 21/14 Q1011
Conditions at: LOWS (SALZBURG AIRPORT, AT) observed 2150 UTC 18 August 2019
Temperature: 21.0°C (70°F)
Dewpoint: 14.0°C (57°F) [RH = 64%]
Pressure (altimeter): 29.85 inches Hg (1011.0 mb)
Winds: from the SSE (160 degrees) at 8 MPH (7 knots; 3.6 m/s)
Visibility: 6 or more miles (10+ km)
Ceiling: at least 12,000 feet AGL
Clouds: sky clear below 12,000 feet AGL
Weather: no significant weather observed at this time

METAR text: LOWS 182120Z AUTO 19004KT 9999 NSC 21/14 Q1011
Conditions at: LOWS (SALZBURG AIRPORT, AT) observed 2120 UTC 18 August 2019
Temperature: 21.0°C (70°F)
Dewpoint: 14.0°C (57°F) [RH = 64%]
Pressure (altimeter): 29.85 inches Hg (1011.0 mb)
Winds: from the S (190 degrees) at 5 MPH (4 knots; 2.1 m/s)
Visibility: 6 or more miles (10+ km)
Ceiling: at least 12,000 feet AGL
Clouds: sky clear below 12,000 feet AGL
Weather: no significant weather observed at this time

METAR text: LOWS 182050Z 17006KT CAVOK 21/14 Q1011
Conditions at: LOWS (SALZBURG AIRPORT, AT) observed 2050 UTC 18 August 2019
Temperature: 21.0°C (70°F)
Dewpoint: 14.0°C (57°F) [RH = 64%]
Pressure (altimeter): 29.85 inches Hg (1011.0 mb)
Winds: from the S (170 degrees) at 7 MPH (6 knots; 3.1 m/s)
Visibility: 6 or more miles (10+ km)
Ceiling: ceiling and visibility are OK
Clouds: unknown
Weather: no significant weather observed at this time

METAR text: LOWS 182020Z 15006KT 9999 FEW090 23/14 Q1011 NOSIG
Conditions at: LOWS (SALZBURG AIRPORT, AT) observed 2020 UTC 18 August 2019
Temperature: 23.0°C (73°F)
Dewpoint: 14.0°C (57°F) [RH = 57%]
Pressure (altimeter): 29.85 inches Hg (1011.0 mb)
Winds: from the SSE (150 degrees) at 7 MPH (6 knots; 3.1 m/s)
Visibility: 6 or more miles (10+ km)
Ceiling: at least 12,000 feet AGL
Clouds: few clouds at 9000 feet AGL
Weather: no significant weather observed at this time

METAR text: LOWS 181950Z 16006KT 9999 FEW060 22/14 Q1011 NOSIG
Conditions at: LOWS (SALZBURG AIRPORT, AT) observed 1950 UTC 18 August 2019
Temperature: 22.0°C (72°F)
Dewpoint: 14.0°C (57°F) [RH = 60%]
Pressure (altimeter): 29.85 inches Hg (1011.0 mb)
Winds: from the SSE (160 degrees) at 7 MPH (6 knots; 3.1 m/s)
Visibility: 6 or more miles (10+ km)
Ceiling: at least 12,000 feet AGL
Clouds: few clouds at 6000 feet AGL
Weather: no significant weather observed at this time

METAR text: LOWS 181920Z 17005KT 9999 FEW060 23/14 Q1011 NOSIG
Conditions at: LOWS (SALZBURG AIRPORT, AT) observed 1920 UTC 18 August 2019
Temperature: 23.0°C (73°F)
Dewpoint: 14.0°C (57°F) [RH = 57%]
Pressure (altimeter): 29.85 inches Hg (1011.0 mb)
Winds: from the S (170 degrees) at 6 MPH (5 knots; 2.6 m/s)
Visibility: 6 or more miles (10+ km)
Ceiling: at least 12,000 feet AGL
Clouds: few clouds at 6000 feet AGL
Weather: no significant weather observed at this time

METAR text: LOWS 181850Z 18005KT 9999 FEW060 24/15 Q1011 NOSIG
Conditions at: LOWS (SALZBURG AIRPORT, AT) observed 1850 UTC 18 August 2019
Temperature: 24.0°C (75°F)
Dewpoint: 15.0°C (59°F) [RH = 57%]
Pressure (altimeter): 29.85 inches Hg (1011.0 mb)
Winds: from the S (180 degrees) at 6 MPH (5 knots; 2.6 m/s)
Visibility: 6 or more miles (10+ km)
Ceiling: at least 12,000 feet AGL
Clouds: few clouds at 6000 feet AGL
Weather: no significant weather observed at this time

METAR text: LOWS 181820Z 19003KT 120V230 9999 FEW060 24/17 Q1011 NOSIG
Conditions at: LOWS (SALZBURG AIRPORT, AT) observed 1820 UTC 18 August 2019
Temperature: 24.0°C (75°F)
Dewpoint: 17.0°C (63°F) [RH = 65%]
Pressure (altimeter): 29.85 inches Hg (1011.0 mb)
Winds: from the S (190 degrees) at 3 MPH (3 knots; 1.5 m/s)
Visibility: 6 or more miles (10+ km)
Ceiling: at least 12,000 feet AGL
Clouds: few clouds at 6000 feet AGL
Weather: no significant weather observed at this time

METAR text: LOWS 181750Z 27003KT 230V300 9999 FEW060 27/16 Q1011 NOSIG
Conditions at: LOWS (SALZBURG AIRPORT, AT) observed 1750 UTC 18 August 2019
Temperature: 27.0°C (81°F)
Dewpoint: 16.0°C (61°F) [RH = 51%]
Pressure (altimeter): 29.85 inches Hg (1011.0 mb)
Winds: from the W (270 degrees) at 3 MPH (3 knots; 1.5 m/s)
Visibility: 6 or more miles (10+ km)
Ceiling: at least 12,000 feet AGL
Clouds: few clouds at 6000 feet AGL
Weather: no significant weather observed at this time

METAR text: LOWS 181720Z 34005KT 9999 FEW070 30/13 Q1011 NOSIG
Conditions at: LOWS (SALZBURG AIRPORT, AT) observed 1720 UTC 18 August 2019
Temperature: 30.0°C (86°F)
Dewpoint: 13.0°C (55°F) [RH = 35%]
Pressure (altimeter): 29.85 inches Hg (1011.0 mb)
Winds: from the NNW (340 degrees) at 6 MPH (5 knots; 2.6 m/s)
Visibility: 6 or more miles (10+ km)
Ceiling: at least 12,000 feet AGL
Clouds: few clouds at 7000 feet AGL
Weather: no significant weather observed at this time

METAR text: LOWS 181650Z 01004KT 330V040 9999 FEW070 31/11 Q1011 NOSIG
Conditions at: LOWS (SALZBURG AIRPORT, AT) observed 1650 UTC 18 August 2019
Temperature: 31.0°C (88°F)
Dewpoint: 11.0°C (52°F) [RH = 29%]
Pressure (altimeter): 29.85 inches Hg (1011.0 mb)
Winds: from the N (10 degrees) at 5 MPH (4 knots; 2.1 m/s)
Visibility: 6 or more miles (10+ km)
Ceiling: at least 12,000 feet AGL
Clouds: few clouds at 7000 feet AGL
Weather: no significant weather observed at this time

METAR text: LOWS 181620Z 35005KT 320V050 9999 FEW070 31/12 Q1012 NOSIG
Conditions at: LOWS (SALZBURG AIRPORT, AT) observed 1620 UTC 18 August 2019
Temperature: 31.0°C (88°F)
Dewpoint: 12.0°C (54°F) [RH = 31%]
Pressure (altimeter): 29.88 inches Hg (1012.0 mb)
Winds: from the N (350 degrees) at 6 MPH (5 knots; 2.6 m/s)
Visibility: 6 or more miles (10+ km)
Ceiling: at least 12,000 feet AGL
Clouds: few clouds at 7000 feet AGL
Weather: no significant weather observed at this time

METAR text: LOWS 181550Z 02005KT 340V050 9999 FEW070 31/13 Q1012 NOSIG
Conditions at: LOWS (SALZBURG AIRPORT, AT) observed 1550 UTC 18 August 2019
Temperature: 31.0°C (88°F)
Dewpoint: 13.0°C (55°F) [RH = 33%]
Pressure (altimeter): 29.88 inches Hg (1012.0 mb)
Winds: from the NNE (20 degrees) at 6 MPH (5 knots; 2.6 m/s)
Visibility: 6 or more miles (10+ km)
Ceiling: at least 12,000 feet AGL
Clouds: few clouds at 7000 feet AGL
Weather: no significant weather observed at this time

METAR text: LOWS 181520Z 01006KT 9999 FEW070 31/11 Q1012 NOSIG
Conditions at: LOWS (SALZBURG AIRPORT, AT) observed 1520 UTC 18 August 2019
Temperature: 31.0°C (88°F)
Dewpoint: 11.0°C (52°F) [RH = 29%]
Pressure (altimeter): 29.88 inches Hg (1012.0 mb)
Winds: from the N (10 degrees) at 7 MPH (6 knots; 3.1 m/s)
Visibility: 6 or more miles (10+ km)
Ceiling: at least 12,000 feet AGL
Clouds: few clouds at 7000 feet AGL
Weather: no significant weather observed at this time

METAR text: LOWS 181450Z 01004KT 330V070 9999 FEW070 31/11 Q1012 NOSIG
Conditions at: LOWS (SALZBURG AIRPORT, AT) observed 1450 UTC 18 August 2019
Temperature: 31.0°C (88°F)
Dewpoint: 11.0°C (52°F) [RH = 29%]
Pressure (altimeter): 29.88 inches Hg (1012.0 mb)
Winds: from the N (10 degrees) at 5 MPH (4 knots; 2.1 m/s)
Visibility: 6 or more miles (10+ km)
Ceiling: at least 12,000 feet AGL
Clouds: few clouds at 7000 feet AGL
Weather: no significant weather observed at this time

METAR text: LOWS 181420Z 01005KT 280V070 9999 FEW070 32/11 Q1012 NOSIG
Conditions at: LOWS (SALZBURG AIRPORT, AT) observed 1420 UTC 18 August 2019
Temperature: 32.0°C (90°F)
Dewpoint: 11.0°C (52°F) [RH = 28%]
Pressure (altimeter): 29.88 inches Hg (1012.0 mb)
Winds: from the N (10 degrees) at 6 MPH (5 knots; 2.6 m/s)
Visibility: 6 or more miles (10+ km)
Ceiling: at least 12,000 feet AGL
Clouds: few clouds at 7000 feet AGL
Weather: no significant weather observed at this time

METAR text: LOWS 181350Z 02004KT 320V060 9999 FEW070 32/14 Q1012 NOSIG
Conditions at: LOWS (SALZBURG AIRPORT, AT) observed 1350 UTC 18 August 2019
Temperature: 32.0°C (90°F)
Dewpoint: 14.0°C (57°F) [RH = 34%]
Pressure (altimeter): 29.88 inches Hg (1012.0 mb)
Winds: from the NNE (20 degrees) at 5 MPH (4 knots; 2.1 m/s)
Visibility: 6 or more miles (10+ km)
Ceiling: at least 12,000 feet AGL
Clouds: few clouds at 7000 feet AGL
Weather: no significant weather observed at this time

METAR text: LOWS 181320Z 02004KT 350V100 9999 FEW070 31/16 Q1012 NOSIG
Conditions at: LOWS (SALZBURG AIRPORT, AT) observed 1320 UTC 18 August 2019
Temperature: 31.0°C (88°F)
Dewpoint: 16.0°C (61°F) [RH = 40%]
Pressure (altimeter): 29.88 inches Hg (1012.0 mb)
Winds: from the NNE (20 degrees) at 5 MPH (4 knots; 2.1 m/s)
Visibility: 6 or more miles (10+ km)
Ceiling: at least 12,000 feet AGL
Clouds: few clouds at 7000 feet AGL
Weather: no significant weather observed at this time

METAR text: LOWS 181250Z 36006KT 310V040 9999 FEW070 31/14 Q1012 NOSIG
Conditions at: LOWS (SALZBURG AIRPORT, AT) observed 1250 UTC 18 August 2019
Temperature: 31.0°C (88°F)
Dewpoint: 14.0°C (57°F) [RH = 36%]
Pressure (altimeter): 29.88 inches Hg (1012.0 mb)
Winds: from the N (360 degrees) at 7 MPH (6 knots; 3.1 m/s)
Visibility: 6 or more miles (10+ km)
Ceiling: at least 12,000 feet AGL
Clouds: few clouds at 7000 feet AGL
Weather: no significant weather observed at this time

METAR text: LOWS 181220Z 33004KT 280V030 9999 FEW070 30/14 Q1012 NOSIG
Conditions at: LOWS (SALZBURG AIRPORT, AT) observed 1220 UTC 18 August 2019
Temperature: 30.0°C (86°F)
Dewpoint: 14.0°C (57°F) [RH = 38%]
Pressure (altimeter): 29.88 inches Hg (1012.0 mb)
Winds: from the NNW (330 degrees) at 5 MPH (4 knots; 2.1 m/s)
Visibility: 6 or more miles (10+ km)
Ceiling: at least 12,000 feet AGL
Clouds: few clouds at 7000 feet AGL
Weather: no significant weather observed at this time

METAR text: LOWS 181150Z VRB02KT 9999 FEW070 30/13 Q1013 NOSIG
Conditions at: LOWS (SALZBURG AIRPORT, AT) observed 1150 UTC 18 August 2019
Temperature: 30.0°C (86°F)
Dewpoint: 13.0°C (55°F) [RH = 35%]
Pressure (altimeter): 29.91 inches Hg (1013.0 mb)
Winds: variable direction winds at 2 MPH (2 knots; 1.0 m/s)
Visibility: 6 or more miles (10+ km)
Ceiling: at least 12,000 feet AGL
Clouds: few clouds at 7000 feet AGL
Weather: no significant weather observed at this time

METAR text: LOWS 181120Z 05004KT 010V110 CAVOK 29/13 Q1013 NOSIG
Conditions at: LOWS (SALZBURG AIRPORT, AT) observed 1120 UTC 18 August 2019
Temperature: 29.0°C (84°F)
Dewpoint: 13.0°C (55°F) [RH = 37%]
Pressure (altimeter): 29.91 inches Hg (1013.0 mb)
Winds: from the NE (50 degrees) at 5 MPH (4 knots; 2.1 m/s)
Visibility: 6 or more miles (10+ km)
Ceiling: ceiling and visibility are OK
Clouds: unknown
Weather: no significant weather observed at this time

METAR text: LOWS 181050Z VRB02KT CAVOK 29/15 Q1013 NOSIG
Conditions at: LOWS (SALZBURG AIRPORT, AT) observed 1050 UTC 18 August 2019
Temperature: 29.0°C (84°F)
Dewpoint: 15.0°C (59°F) [RH = 43%]
Pressure (altimeter): 29.91 inches Hg (1013.0 mb)
Winds: variable direction winds at 2 MPH (2 knots; 1.0 m/s)
Visibility: 6 or more miles (10+ km)
Ceiling: ceiling and visibility are OK
Clouds: unknown
Weather: no significant weather observed at this time

METAR text: LOWS 181020Z VRB02KT CAVOK 28/15 Q1013 NOSIG
Conditions at: LOWS (SALZBURG AIRPORT, AT) observed 1020 UTC 18 August 2019
Temperature: 28.0°C (82°F)
Dewpoint: 15.0°C (59°F) [RH = 45%]
Pressure (altimeter): 29.91 inches Hg (1013.0 mb)
Winds: variable direction winds at 2 MPH (2 knots; 1.0 m/s)
Visibility: 6 or more miles (10+ km)
Ceiling: ceiling and visibility are OK
Clouds: unknown
Weather: no significant weather observed at this time

METAR text: LOWS 180950Z 15005KT 110V190 CAVOK 27/14 Q1013 NOSIG
Conditions at: LOWS (SALZBURG AIRPORT, AT) observed 0950 UTC 18 August 2019
Temperature: 27.0°C (81°F)
Dewpoint: 14.0°C (57°F) [RH = 45%]
Pressure (altimeter): 29.91 inches Hg (1013.0 mb)
Winds: from the SSE (150 degrees) at 6 MPH (5 knots; 2.6 m/s)
Visibility: 6 or more miles (10+ km)
Ceiling: ceiling and visibility are OK
Clouds: unknown
Weather: no significant weather observed at this time

METAR text: LOWS 180920Z 12005KT 090V180 CAVOK 26/15 Q1013 NOSIG
Conditions at: LOWS (SALZBURG AIRPORT, AT) observed 0920 UTC 18 August 2019
Temperature: 26.0°C (79°F)
Dewpoint: 15.0°C (59°F) [RH = 51%]
Pressure (altimeter): 29.91 inches Hg (1013.0 mb)
Winds: from the ESE (120 degrees) at 6 MPH (5 knots; 2.6 m/s)
Visibility: 6 or more miles (10+ km)
Ceiling: ceiling and visibility are OK
Clouds: unknown
Weather: no significant weather observed at this time

METAR text: LOWS 180850Z 15006KT 9999 FEW110 25/15 Q1014 NOSIG
Conditions at: LOWS (SALZBURG AIRPORT, AT) observed 0850 UTC 18 August 2019
Temperature: 25.0°C (77°F)
Dewpoint: 15.0°C (59°F) [RH = 54%]
Pressure (altimeter): 29.94 inches Hg (1014.0 mb)
Winds: from the SSE (150 degrees) at 7 MPH (6 knots; 3.1 m/s)
Visibility: 6 or more miles (10+ km)
Ceiling: at least 12,000 feet AGL
Clouds: few clouds at 11000 feet AGL
Weather: no significant weather observed at this time

METAR text: LOWS 180820Z 16008KT 9999 FEW110 24/14 Q1014 BECMG 35005KT
Conditions at: LOWS (SALZBURG AIRPORT, AT) observed 0820 UTC 18 August 2019
Temperature: 24.0°C (75°F)
Dewpoint: 14.0°C (57°F) [RH = 54%]
Pressure (altimeter): 29.94 inches Hg (1014.0 mb)
Winds: from the SSE (160 degrees) at 9 MPH (8 knots; 4.1 m/s)
Visibility: 6 or more miles (10+ km)
Ceiling: at least 12,000 feet AGL
Clouds: few clouds at 11000 feet AGL
Weather: no significant weather observed at this time

METAR text: LOWS 180750Z 16009KT CAVOK 23/14 Q1014 BECMG 35005KT
Conditions at: LOWS (SALZBURG AIRPORT, AT) observed 0750 UTC 18 August 2019
Temperature: 23.0°C (73°F)
Dewpoint: 14.0°C (57°F) [RH = 57%]
Pressure (altimeter): 29.94 inches Hg (1014.0 mb)
Winds: from the SSE (160 degrees) at 10 MPH (9 knots; 4.6 m/s)
Visibility: 6 or more miles (10+ km)
Ceiling: ceiling and visibility are OK
Clouds: unknown
Weather: no significant weather observed at this time

Forecast for: LOWS (SALZBURG AIRPORT, AT)
Text: TAF LOWS 191715Z 1918/2018 16006KT 9999 FEW050 BKN100 TX21/2011Z TN17/2003Z
Forecast period: 1800 UTC 19 August 2019 to 0800 UTC 20 August 2019
Forecast type: FROM: standard forecast or significant change
Winds: from the SSE (160 degrees) at 7 MPH (6 knots; 3.1 m/s)
Visibility: 6 or more miles 10+ km)
Ceiling: 10000 feet AGL
Clouds: few clouds at 5000 feet AGL
broken clouds at 10000 feet AGL
Weather: no significant weather forecast for this period
Text: TEMPO 1918/1921 32008KT -SHRA SCT045 BKN070
Forecast period: 1800 to 2100 UTC 19 August 2019
Forecast type: TEMPORARY: The following changes expected for less than half the time period
Winds: from the NW (320 degrees) at 9 MPH (8 knots; 4.1 m/s)
Visibility: missing
Ceiling: 7000 feet AGL
Clouds: scattered clouds at 4500 feet AGL
broken clouds at 7000 feet AGL
Weather: -SHRA  (light rain showers)
Text: PROB30
Forecast period: 1800 to 2000 UTC 19 August 2019
Forecast type: TEMPORARY: The following changes expected for less than half the time period
Visibility: missing
Ceiling: 5000 feet AGL
Clouds: scattered clouds at 3000 feet AGL
broken clouds at 5000 feet AGL
Weather: SHRA  (rain showers)
Text: TEMPO 1918/1920 SHRA SCT030TCU BKN050
Forecast period: 0800 to 1800 UTC 20 August 2019
Forecast type: BECOMING: Conditions expected to become as follows by 1000 UTC 20 August 2019
Winds: from the NW (320 degrees) at 7 MPH (6 knots; 3.1 m/s)
Visibility: 6 or more miles 10+ km)
Ceiling: 10000 feet AGL
Clouds: few clouds at 5000 feet AGL
broken clouds at 10000 feet AGL
Weather: no significant weather forecast for this period
Text: BECMG 2008/2010 32006KT
Forecast period: 1100 to 1800 UTC 20 August 2019
Forecast type: TEMPORARY: The following changes expected for less than half the time period
Winds: from the NNW (340 degrees) at 12 MPH (10 knots; 5.1 m/s)
Visibility: missing
Ceiling: 4000 feet AGL
Clouds: scattered clouds at 3000 feet AGL
broken clouds at 4000 feet AGL
Weather: -SHRA  (light rain showers)
Text: TEMPO 2011/2018 34010KT -SHRA SCT030 BKN040
Forecast period: 1100 to 1600 UTC 20 August 2019
Forecast type: TEMPORARY: The following changes expected for less than half the time period
Winds: from the NNW (340 degrees) at 17 MPH (15 knots; 7.7 m/s)
gusting to 29 MPH (25 knots; 12.9 m/s)
Visibility: 2.49 miles (4.01 km)
Ceiling: 3500 feet AGL
Clouds: scattered clouds at 2000 feet AGL
broken clouds at 3500 feet AGL
Weather: SHRA  (rain showers)